createdAt,value
2019-02-09T00:00:25.188Z,25.50
2019-02-09T00:02:56.993Z,25.20
2019-02-09T00:05:28.691Z,25.50
2019-02-09T00:08:00.153Z,25.40
2019-02-09T00:10:31.801Z,25.40
2019-02-09T00:13:03.340Z,25.30
2019-02-09T00:15:34.931Z,25.20
2019-02-09T00:18:06.738Z,25.00
2019-02-09T00:20:38.532Z,25.30
2019-02-09T00:23:10.332Z,25.40
2019-02-09T00:25:42.253Z,25.20
2019-02-09T00:28:13.799Z,25.50
2019-02-09T00:30:45.405Z,25.30
2019-02-09T00:33:17.004Z,25.30
2019-02-09T00:35:48.771Z,25.30
2019-02-09T00:38:20.283Z,25.50
2019-02-09T00:40:51.815Z,25.40
2019-02-09T00:43:23.247Z,25.40
2019-02-09T00:45:54.832Z,25.50
2019-02-09T00:48:27.818Z,25.30
2019-02-09T00:50:59.751Z,24.80
2019-02-09T00:53:31.228Z,25.10
2019-02-09T00:56:02.943Z,24.90
2019-02-09T00:58:34.717Z,25.10
2019-02-09T01:01:06.475Z,25.10
2019-02-09T01:03:38.192Z,25.20
2019-02-09T01:06:09.989Z,25.10
2019-02-09T01:08:41.504Z,25.00
2019-02-09T01:11:13.041Z,25.00
2019-02-09T01:13:44.515Z,25.00
2019-02-09T01:16:16.008Z,25.00
2019-02-09T01:18:47.851Z,25.10
2019-02-09T01:21:19.461Z,25.10
2019-02-09T01:23:50.953Z,25.20
2019-02-09T01:26:22.724Z,25.30
2019-02-09T01:28:54.233Z,24.90
2019-02-09T01:31:25.779Z,25.00
2019-02-09T01:33:57.557Z,25.10
2019-02-09T01:36:29.025Z,25.20
2019-02-09T01:39:00.510Z,25.30
2019-02-09T01:41:33.732Z,25.40
2019-02-09T01:44:06.471Z,25.20
2019-02-09T01:46:37.968Z,25.20
2019-02-09T01:49:09.650Z,24.90
2019-02-09T01:51:41.434Z,24.40
2019-02-09T01:54:12.859Z,24.00
2019-02-09T01:56:44.548Z,24.10
2019-02-09T01:59:16.025Z,24.20
2019-02-09T02:01:47.888Z,24.10
2019-02-09T02:04:19.759Z,24.00
2019-02-09T02:06:51.362Z,24.10
2019-02-09T02:09:22.853Z,24.00
2019-02-09T02:11:54.592Z,24.10
2019-02-09T02:14:26.033Z,24.20
2019-02-09T02:16:57.559Z,24.30
2019-02-09T02:19:29.349Z,24.20
2019-02-09T02:22:00.834Z,24.40
2019-02-09T02:24:32.564Z,24.70
2019-02-09T02:27:04.157Z,24.90
2019-02-09T02:29:35.603Z,25.10
2019-02-09T02:32:07.318Z,25.00
2019-02-09T02:34:39.031Z,25.20
2019-02-09T02:37:10.741Z,24.90
2019-02-09T02:39:42.246Z,24.70
2019-02-09T02:42:14.055Z,24.30
2019-02-09T02:44:45.522Z,24.40
2019-02-09T02:47:17.287Z,24.50
2019-02-09T02:49:48.977Z,23.80
2019-02-09T02:52:20.779Z,23.70
2019-02-09T02:54:52.283Z,23.70
2019-02-09T02:57:24.404Z,23.90
2019-02-09T02:59:55.893Z,23.90
2019-02-09T03:02:27.384Z,23.60
2019-02-09T03:04:58.943Z,23.70
2019-02-09T03:07:30.428Z,23.40
2019-02-09T03:10:01.877Z,23.60
2019-02-09T03:12:33.814Z,23.40
2019-02-09T03:15:06.026Z,23.40
2019-02-09T03:17:37.865Z,23.80
2019-02-09T03:20:12.622Z,23.50
2019-02-09T03:22:44.352Z,23.70
2019-02-09T03:25:19.177Z,23.80
2019-02-09T03:27:51.051Z,23.60
2019-02-09T03:30:23.069Z,23.30
2019-02-09T03:32:54.617Z,23.20
2019-02-09T03:35:26.155Z,23.80
2019-02-09T03:37:57.875Z,23.90
2019-02-09T03:40:29.433Z,24.10
2019-02-09T03:43:00.994Z,24.10
2019-02-09T03:45:33.047Z,24.10
2019-02-09T03:48:05.222Z,24.20
2019-02-09T03:50:36.952Z,24.20
2019-02-09T03:53:08.629Z,24.00
2019-02-09T03:55:40.059Z,24.30
2019-02-09T03:58:12.055Z,24.60
2019-02-09T04:00:43.503Z,24.60
2019-02-09T04:03:15.258Z,24.50
2019-02-09T04:05:46.913Z,24.70
2019-02-09T04:08:18.670Z,24.70
2019-02-09T04:10:50.104Z,24.80
2019-02-09T04:13:21.728Z,24.50
2019-02-09T04:15:53.175Z,24.60
2019-02-09T04:18:24.715Z,24.30
2019-02-09T04:20:56.389Z,24.30
2019-02-09T04:23:27.947Z,24.40
2019-02-09T04:25:59.395Z,24.60
2019-02-09T04:28:30.939Z,24.50
2019-02-09T04:31:05.739Z,24.40
2019-02-09T04:33:36.075Z,24.60
2019-02-09T04:36:07.907Z,24.80
2019-02-09T04:38:39.683Z,24.90
2019-02-09T04:41:11.385Z,24.70
2019-02-09T04:43:42.882Z,24.50
2019-02-09T04:46:14.482Z,24.40
2019-02-09T04:48:45.925Z,24.40
2019-02-09T04:51:17.426Z,24.50
2019-02-09T04:53:49.098Z,24.40
2019-02-09T04:56:20.636Z,24.20
2019-02-09T04:58:52.161Z,24.10
2019-02-09T05:01:23.687Z,24.20
2019-02-09T05:03:55.284Z,23.90
2019-02-09T05:06:26.910Z,23.70
2019-02-09T05:08:58.425Z,24.40
2019-02-09T05:11:29.882Z,24.80
2019-02-09T05:14:01.442Z,24.90
2019-02-09T05:16:32.905Z,25.00
2019-02-09T05:19:04.675Z,25.00
2019-02-09T05:21:36.469Z,25.30
2019-02-09T05:24:08.163Z,25.50
2019-02-09T05:26:39.691Z,25.60
2019-02-09T05:29:11.182Z,25.70
2019-02-09T05:31:42.787Z,25.80
2019-02-09T05:34:14.303Z,26.00
2019-02-09T05:36:46.100Z,26.00
2019-02-09T05:39:17.576Z,26.20
2019-02-09T05:41:49.028Z,26.10
2019-02-09T05:44:20.793Z,26.20
2019-02-09T05:46:52.323Z,26.00
2019-02-09T05:49:24.123Z,25.60
2019-02-09T05:51:55.862Z,25.50
2019-02-09T05:54:27.625Z,25.60
2019-02-09T05:56:59.164Z,25.50
2019-02-09T05:59:31.343Z,25.30
2019-02-09T06:02:02.810Z,24.80
2019-02-09T06:04:34.555Z,24.90
2019-02-09T06:07:07.450Z,25.00
2019-02-09T06:09:39.206Z,25.10
2019-02-09T06:12:10.671Z,25.10
2019-02-09T06:14:42.413Z,24.90
2019-02-09T06:17:15.145Z,25.20
2019-02-09T06:19:46.957Z,24.90
2019-02-09T06:22:18.640Z,25.20
2019-02-09T06:24:50.283Z,25.30
2019-02-09T06:27:21.752Z,25.20
2019-02-09T06:29:53.585Z,25.10
2019-02-09T06:32:25.112Z,24.90
2019-02-09T06:34:56.600Z,24.80
2019-02-09T06:37:28.102Z,24.90
2019-02-09T06:39:59.812Z,25.00
2019-02-09T06:42:31.302Z,25.20
2019-02-09T06:45:02.757Z,25.10
2019-02-09T06:47:34.244Z,25.10
2019-02-09T06:50:07.961Z,25.30
2019-02-09T06:52:39.789Z,25.20
2019-02-09T06:55:13.627Z,24.90
2019-02-09T06:57:45.095Z,25.10
2019-02-09T07:00:18.949Z,25.00
2019-02-09T07:02:50.486Z,24.90
2019-02-09T07:05:22.293Z,24.40
2019-02-09T07:07:54.203Z,24.30
2019-02-09T07:10:26.437Z,24.20
2019-02-09T07:12:57.910Z,24.10
2019-02-09T07:15:29.820Z,23.90
2019-02-09T07:18:01.279Z,24.10
2019-02-09T07:20:32.904Z,24.40
2019-02-09T07:23:04.417Z,24.40
2019-02-09T07:25:36.093Z,24.80
2019-02-09T07:28:07.772Z,24.80
2019-02-09T07:30:39.541Z,24.30
2019-02-09T07:33:11.003Z,24.40
2019-02-09T07:35:43.867Z,24.30
2019-02-09T07:38:15.455Z,24.30
2019-02-09T07:40:47.128Z,23.90
2019-02-09T07:43:18.638Z,23.80
2019-02-09T07:45:50.195Z,23.90
2019-02-09T07:48:21.673Z,24.10
2019-02-09T07:50:54.294Z,23.20
2019-02-09T07:53:26.095Z,23.80
2019-02-09T07:55:57.595Z,23.70
2019-02-09T07:58:29.075Z,23.80
2019-02-09T08:01:00.718Z,24.00
2019-02-09T08:03:32.353Z,24.30
2019-02-09T08:06:04.417Z,23.80
2019-02-09T08:08:35.969Z,23.80
2019-02-09T08:11:09.231Z,23.70
2019-02-09T08:13:40.749Z,24.10
2019-02-09T08:16:12.589Z,24.10
2019-02-09T08:18:44.320Z,23.40
2019-02-09T08:21:16.436Z,23.90
2019-02-09T08:23:48.976Z,23.60
2019-02-09T08:26:20.749Z,23.70
2019-02-09T08:28:53.506Z,24.40
2019-02-09T08:31:25.394Z,24.30
2019-02-09T08:33:57.122Z,24.20
2019-02-09T08:36:29.290Z,24.00
2019-02-09T08:39:00.839Z,24.20
2019-02-09T08:41:34.170Z,24.70
2019-02-09T08:44:05.747Z,24.50
2019-02-09T08:46:38.072Z,24.50
2019-02-09T08:49:09.661Z,24.20
2019-02-09T08:51:41.621Z,24.10
2019-02-09T08:54:13.212Z,23.90
2019-02-09T08:56:44.745Z,23.60
2019-02-09T08:59:16.556Z,23.60
2019-02-09T09:01:48.126Z,24.10
2019-02-09T09:04:19.596Z,24.60
2019-02-09T09:06:51.342Z,24.80
2019-02-09T09:09:23.018Z,25.20
2019-02-09T09:11:54.754Z,25.30
2019-02-09T09:14:26.281Z,25.50
2019-02-09T09:16:58.279Z,25.40
2019-02-09T09:19:29.939Z,25.70
2019-02-09T09:22:01.570Z,25.30
2019-02-09T09:24:33.232Z,24.90
2019-02-09T09:27:05.019Z,24.80
2019-02-09T09:29:36.596Z,25.40
2019-02-09T09:32:08.412Z,25.50
2019-02-09T09:34:39.898Z,25.00
2019-02-09T09:37:11.441Z,25.30
2019-02-09T09:39:43.168Z,25.40
2019-02-09T09:42:16.978Z,25.10
2019-02-09T09:44:48.450Z,24.90
2019-02-09T09:47:19.980Z,25.10
2019-02-09T09:49:51.820Z,25.20
2019-02-09T09:52:23.639Z,24.90
2019-02-09T09:54:55.352Z,24.70
2019-02-09T09:57:27.038Z,24.50
2019-02-09T09:59:58.661Z,24.60
2019-02-09T10:02:36.452Z,24.40
2019-02-09T10:05:03.980Z,24.90
2019-02-09T10:07:35.924Z,24.40
2019-02-09T10:10:10.187Z,25.00
2019-02-09T10:12:41.986Z,24.80
2019-02-09T10:15:16.277Z,24.90
2019-02-09T10:17:48.386Z,25.10
2019-02-09T10:20:22.358Z,25.90
2019-02-09T10:22:54.158Z,25.60
2019-02-09T10:25:25.725Z,25.20
2019-02-09T10:27:57.362Z,24.40
2019-02-09T10:30:30.017Z,24.70
2019-02-09T10:33:02.249Z,25.30
2019-02-09T10:35:33.903Z,25.60
2019-02-09T10:38:05.825Z,25.40
2019-02-09T10:40:38.006Z,25.70
2019-02-09T10:43:09.846Z,26.10
2019-02-09T10:45:41.937Z,26.10
2019-02-09T10:48:13.791Z,25.80
2019-02-09T10:50:46.944Z,25.70
2019-02-09T10:53:18.973Z,25.90
2019-02-09T10:55:50.556Z,25.90
2019-02-09T10:58:22.247Z,25.70
2019-02-09T11:01:06.904Z,25.40
2019-02-09T11:03:38.509Z,25.50
2019-02-09T11:06:10.015Z,25.90
2019-02-09T11:08:41.688Z,26.00
2019-02-09T11:11:13.395Z,26.10
2019-02-09T11:13:45.298Z,26.00
2019-02-09T11:16:16.769Z,25.60
2019-02-09T11:18:48.607Z,25.90
2019-02-09T11:21:20.069Z,25.90
2019-02-09T11:23:52.035Z,26.30
2019-02-09T11:26:23.781Z,26.50
2019-02-09T11:28:55.301Z,26.40
2019-02-09T11:31:26.839Z,26.50
2019-02-09T11:33:58.553Z,26.20
2019-02-09T11:36:30.148Z,26.00
2019-02-09T11:39:01.951Z,25.70
2019-02-09T11:41:35.421Z,26.40
2019-02-09T11:44:07.219Z,26.20
2019-02-09T11:46:38.747Z,26.90
2019-02-09T11:49:10.546Z,27.00
2019-02-09T11:51:42.292Z,26.80
2019-02-09T11:54:14.147Z,26.90
2019-02-09T11:56:45.997Z,26.00
2019-02-09T11:59:17.786Z,25.70
2019-02-09T12:01:49.354Z,25.90
2019-02-09T12:04:21.197Z,25.60
2019-02-09T12:06:52.713Z,25.30
2019-02-09T12:09:24.392Z,26.00
2019-02-09T12:11:56.316Z,26.60
2019-02-09T12:14:28.243Z,26.60
2019-02-09T12:16:59.824Z,26.10
2019-02-09T12:19:31.382Z,25.70
2019-02-09T12:22:02.871Z,25.80
2019-02-09T12:24:34.580Z,25.80
2019-02-09T12:27:06.337Z,26.10
2019-02-09T12:29:38.174Z,25.40
2019-02-09T12:32:09.788Z,25.40
2019-02-09T12:34:41.692Z,25.20
2019-02-09T12:37:13.222Z,23.70
2019-02-09T12:39:45.288Z,23.80
2019-02-09T12:42:17.048Z,23.20
2019-02-09T12:44:48.837Z,23.10
2019-02-09T12:47:20.358Z,23.10
2019-02-09T12:49:52.328Z,21.90
2019-02-09T12:52:23.830Z,21.80
2019-02-09T12:54:55.748Z,23.20
2019-02-09T12:57:27.632Z,23.40
2019-02-09T12:59:59.179Z,23.80
2019-02-09T13:02:31.017Z,24.10
2019-02-09T13:05:02.870Z,22.70
2019-02-09T13:07:34.350Z,22.20
2019-02-09T13:10:06.919Z,23.90
2019-02-09T13:12:38.443Z,23.30
2019-02-09T13:15:13.831Z,21.90
2019-02-09T13:17:45.366Z,20.70
2019-02-09T13:20:20.060Z,19.20
2019-02-09T13:22:51.532Z,19.70
2019-02-09T13:25:23.415Z,19.70
2019-02-09T13:27:55.199Z,19.80
2019-02-09T13:30:32.105Z,18.60
2019-02-09T13:33:03.633Z,17.90
2019-02-09T13:35:36.087Z,18.30
2019-02-09T13:38:07.600Z,18.50
2019-02-09T13:40:39.806Z,18.60
2019-02-09T13:43:11.633Z,18.20
2019-02-09T13:45:47.755Z,18.70
2019-02-09T13:48:19.389Z,19.10
2019-02-09T13:50:51.007Z,19.10
2019-02-09T13:53:22.532Z,19.00
2019-02-09T13:55:54.101Z,18.10
2019-02-09T13:58:26.066Z,20.00
2019-02-09T14:00:57.675Z,21.20
2019-02-09T14:03:29.145Z,22.30
2019-02-09T14:06:07.887Z,22.40
2019-02-09T14:08:33.968Z,22.80
2019-02-09T14:11:05.553Z,23.70
2019-02-09T14:13:37.479Z,24.40
2019-02-09T14:16:10.879Z,25.40
2019-02-09T14:18:42.542Z,25.70
2019-02-09T14:21:14.322Z,26.10
2019-02-09T14:23:45.951Z,26.60
2019-02-09T14:26:17.815Z,26.60
2019-02-09T14:28:49.743Z,26.80
2019-02-09T14:31:21.906Z,26.70
2019-02-09T14:33:55.061Z,26.40
2019-02-09T14:36:26.830Z,26.50
2019-02-09T14:38:58.647Z,26.90
2019-02-09T14:41:30.551Z,27.20
2019-02-09T14:44:02.423Z,27.00
2019-02-09T14:46:34.251Z,26.90
2019-02-09T14:49:05.844Z,27.00
2019-02-09T14:51:38.769Z,27.30
2019-02-09T14:54:10.641Z,27.40
2019-02-09T14:56:42.406Z,27.20
2019-02-09T14:59:14.371Z,27.30
2019-02-09T15:01:45.906Z,27.40
2019-02-09T15:04:17.468Z,26.70
2019-02-09T15:06:49.094Z,25.60
2019-02-09T15:09:20.734Z,25.90
2019-02-09T15:11:52.514Z,26.20
2019-02-09T15:14:24.330Z,25.30
2019-02-09T15:17:05.038Z,25.70
2019-02-09T15:19:38.158Z,26.40
2019-02-09T15:22:10.032Z,26.90
2019-02-09T15:24:41.529Z,26.60
2019-02-09T15:27:13.151Z,26.00
2019-02-09T15:29:44.871Z,26.10
2019-02-09T15:32:16.649Z,24.20
2019-02-09T15:34:48.185Z,24.00
2019-02-09T15:37:19.854Z,22.80
2019-02-09T15:39:51.471Z,23.70
2019-02-09T15:42:23.377Z,24.10
2019-02-09T15:44:55.003Z,25.10
2019-02-09T15:47:26.905Z,25.50
2019-02-09T15:49:58.374Z,25.10
2019-02-09T15:52:30.229Z,25.40
2019-02-09T15:55:01.749Z,24.70
2019-02-09T15:57:33.740Z,24.50
2019-02-09T16:00:07.974Z,24.60
2019-02-09T16:02:39.915Z,23.90
2019-02-09T16:06:16.313Z,25.20
2019-02-09T16:08:47.990Z,25.10
2019-02-09T16:11:19.511Z,26.20
2019-02-09T16:13:51.365Z,26.70
2019-02-09T16:16:22.918Z,27.20
2019-02-09T16:18:54.680Z,27.60
2019-02-09T16:21:26.338Z,28.00
2019-02-09T16:23:58.204Z,28.00
2019-02-09T16:26:29.757Z,28.20
2019-02-09T16:29:01.485Z,28.20
2019-02-09T16:31:33.379Z,27.20
2019-02-09T16:34:05.228Z,27.20
2019-02-09T16:36:36.796Z,27.00
2019-02-09T16:39:10.181Z,26.70
2019-02-09T16:41:42.076Z,25.80
2019-02-09T16:44:14.218Z,26.20
2019-02-09T16:46:45.937Z,25.90
2019-02-09T16:49:17.816Z,25.80
2019-02-09T16:51:49.407Z,26.30
2019-02-09T16:54:21.264Z,26.00
2019-02-09T16:56:52.807Z,25.30
2019-02-09T16:59:24.764Z,25.00
2019-02-09T17:01:56.358Z,24.70
2019-02-09T17:04:33.086Z,24.60
2019-02-09T17:07:01.496Z,23.90
2019-02-09T17:09:33.417Z,24.00
2019-02-09T17:12:04.929Z,23.90
2019-02-09T17:14:36.967Z,23.70
2019-02-09T17:17:08.736Z,23.90
2019-02-09T17:19:40.347Z,24.60
2019-02-09T17:22:11.892Z,24.40
2019-02-09T17:24:43.600Z,24.10
2019-02-09T17:27:15.269Z,23.80
2019-02-09T17:29:46.823Z,23.60
2019-02-09T17:32:18.534Z,23.20
2019-02-09T17:34:50.219Z,23.80
2019-02-09T17:37:21.734Z,23.50
2019-02-09T17:39:53.524Z,23.30
2019-02-09T17:42:25.069Z,23.30
2019-02-09T17:44:56.865Z,23.10
2019-02-09T17:47:28.781Z,22.40
2019-02-09T17:50:00.745Z,22.60
2019-02-09T17:52:32.413Z,22.70
2019-02-09T17:55:04.261Z,22.10
2019-02-09T17:57:35.941Z,22.20
2019-02-09T18:00:14.012Z,22.90
2019-02-09T18:02:45.578Z,23.30
2019-02-09T18:05:17.340Z,23.10
2019-02-09T18:07:48.819Z,22.90
2019-02-09T18:10:20.963Z,22.30
2019-02-09T18:12:52.487Z,22.80
2019-02-09T18:15:24.277Z,22.50
2019-02-09T18:17:55.764Z,21.80
2019-02-09T18:20:27.967Z,22.30
2019-02-09T18:22:59.682Z,22.70
2019-02-09T18:25:31.407Z,22.60
2019-02-09T18:28:02.992Z,23.30
2019-02-09T18:30:34.682Z,22.40
2019-02-09T18:33:06.529Z,21.80
2019-02-09T18:35:38.557Z,22.40
2019-02-09T18:38:10.155Z,23.00
2019-02-09T18:40:41.630Z,22.70
2019-02-09T18:43:13.182Z,22.30
2019-02-09T18:45:44.888Z,22.30
2019-02-09T18:48:16.460Z,21.60
2019-02-09T18:50:48.119Z,21.60
2019-02-09T18:53:19.603Z,21.30
2019-02-09T18:55:51.645Z,21.50
2019-02-09T18:58:23.414Z,22.10
2019-02-09T19:00:55.322Z,21.90
2019-02-09T19:03:27.277Z,22.00
2019-02-09T19:05:59.260Z,22.00
2019-02-09T19:08:31.251Z,22.00
2019-02-09T19:11:02.895Z,22.20
2019-02-09T19:13:34.809Z,22.40
2019-02-09T19:16:07.529Z,23.00
2019-02-09T19:18:40.331Z,22.70
2019-02-09T19:21:16.243Z,23.00
2019-02-09T19:23:47.853Z,23.10
2019-02-09T19:26:19.993Z,23.20
2019-02-09T19:28:51.599Z,24.50
2019-02-09T19:31:23.412Z,24.20
2019-02-09T19:33:55.315Z,24.70
2019-02-09T19:36:27.120Z,24.80
2019-02-09T19:38:58.700Z,24.90
2019-02-09T19:41:30.436Z,25.30
2019-02-09T19:44:01.969Z,26.20
2019-02-09T19:46:33.841Z,26.30
2019-02-09T19:49:05.800Z,25.60
2019-02-09T19:51:37.689Z,25.70
2019-02-09T19:54:09.279Z,25.70
2019-02-09T19:56:41.120Z,26.00
2019-02-09T19:59:12.778Z,25.70
2019-02-09T20:01:44.837Z,25.70
2019-02-09T20:04:16.727Z,25.40
2019-02-09T20:06:48.744Z,25.20
2019-02-09T20:09:20.446Z,24.90
2019-02-09T20:11:52.893Z,24.50
2019-02-09T20:14:24.607Z,24.10
2019-02-09T20:16:56.606Z,23.90
2019-02-09T20:19:28.570Z,24.20
2019-02-09T20:22:00.532Z,23.10
2019-02-09T20:24:32.471Z,22.60
2019-02-09T20:27:04.672Z,22.20
2019-02-09T20:29:36.686Z,21.70
2019-02-09T20:32:08.440Z,21.80
2019-02-09T20:34:40.632Z,22.30
2019-02-09T20:37:13.039Z,22.80
2019-02-09T20:39:45.027Z,22.90
2019-02-09T20:42:16.858Z,22.30
2019-02-09T20:44:48.693Z,21.70
2019-02-09T20:47:20.375Z,22.30
2019-02-09T20:49:52.470Z,22.70
2019-02-09T20:52:25.340Z,23.40
2019-02-09T20:54:57.123Z,23.00
2019-02-09T20:57:28.896Z,22.50
2019-02-09T21:00:00.849Z,22.70
2019-02-09T21:02:33.229Z,23.40
2019-02-09T21:05:06.395Z,24.10
2019-02-09T21:07:38.326Z,24.80
2019-02-09T21:10:21.769Z,24.50
2019-02-09T21:12:54.488Z,24.70
2019-02-09T21:15:27.884Z,24.40
2019-02-09T21:18:01.826Z,24.80
2019-02-09T21:20:33.726Z,24.90
2019-02-09T21:23:06.518Z,24.40
2019-02-09T21:25:41.197Z,24.40
2019-02-09T21:28:13.330Z,24.50
2019-02-09T21:30:45.231Z,24.90
2019-02-09T21:33:17.541Z,24.50
2019-02-09T21:35:50.026Z,25.10
2019-02-09T21:38:22.189Z,25.40
2019-02-09T21:40:53.936Z,25.50
2019-02-09T21:43:26.939Z,24.60
2019-02-09T21:45:58.882Z,24.50
2019-02-09T21:48:31.136Z,24.40
2019-02-09T21:51:02.877Z,24.30
2019-02-09T21:53:34.885Z,23.90
2019-02-09T21:56:06.793Z,24.50
2019-02-09T21:58:38.902Z,25.00
2019-02-09T22:01:10.721Z,25.20
2019-02-09T22:03:42.637Z,24.70
2019-02-09T22:06:14.639Z,24.30
2019-02-09T22:08:46.896Z,24.70
2019-02-09T22:11:18.596Z,25.50
2019-02-09T22:13:50.406Z,26.30
2019-02-09T22:16:23.225Z,26.30
2019-02-09T22:18:55.361Z,26.50
2019-02-09T22:21:28.452Z,26.60
2019-02-09T22:24:00.385Z,26.20
2019-02-09T22:26:33.420Z,25.40
2019-02-09T22:29:05.449Z,25.70
2019-02-09T22:31:37.224Z,25.60
2019-02-09T22:34:09.341Z,25.40
2019-02-09T22:36:41.567Z,26.10
2019-02-09T22:39:13.605Z,25.60
2019-02-09T22:41:49.191Z,26.00
2019-02-09T22:44:18.649Z,26.10
2019-02-09T22:46:50.181Z,24.10
2019-02-09T22:49:22.112Z,23.80
2019-02-09T22:51:53.713Z,24.20
2019-02-09T22:54:25.335Z,24.30
2019-02-09T22:56:56.849Z,24.40
2019-02-09T22:59:28.420Z,24.10
2019-02-09T23:01:59.897Z,23.30
2019-02-09T23:05:15.208Z,24.00
2019-02-09T23:07:47.110Z,24.00
2019-02-09T23:10:18.954Z,24.70
2019-02-09T23:12:50.571Z,24.30
2019-02-09T23:15:22.448Z,25.20
2019-02-09T23:17:54.014Z,24.30
2019-02-09T23:20:25.652Z,23.90
2019-02-09T23:22:57.268Z,23.50
2019-02-09T23:25:28.964Z,24.60
2019-02-09T23:28:01.548Z,24.50
2019-02-09T23:30:33.322Z,24.30
2019-02-09T23:33:05.029Z,22.80
2019-02-09T23:35:36.594Z,22.70
2019-02-09T23:38:08.342Z,21.90
2019-02-09T23:40:39.886Z,21.30
2019-02-09T23:43:11.361Z,21.60
2019-02-09T23:45:42.827Z,21.60
2019-02-09T23:48:14.348Z,21.40
2019-02-09T23:50:45.936Z,21.00
2019-02-09T23:53:17.393Z,20.60
2019-02-09T23:55:49.153Z,21.40
2019-02-09T23:58:20.619Z,21.40
